sensor_id;sensor_type;location;lat;lon;timestamp;P1;durP1;ratioP1;P2;durP2;ratioP2
62584;SDS011;48643;51.670;5.808;2023-08-08T00:01:10;5.82;;;2.35;;
62584;SDS011;48643;51.670;5.808;2023-08-08T00:03:37;3.85;;;2.10;;
62584;SDS011;48643;51.670;5.808;2023-08-08T00:06:04;4.57;;;2.40;;
62584;SDS011;48643;51.670;5.808;2023-08-08T00:08:31;4.78;;;2.40;;
62584;SDS011;48643;51.670;5.808;2023-08-08T00:10:58;4.75;;;2.13;;
62584;SDS011;48643;51.670;5.808;2023-08-08T00:13:25;3.63;;;2.22;;
62584;SDS011;48643;51.670;5.808;2023-08-08T00:15:52;3.50;;;2.30;;
62584;SDS011;48643;51.670;5.808;2023-08-08T00:18:19;5.38;;;2.60;;
62584;SDS011;48643;51.670;5.808;2023-08-08T00:20:46;4.93;;;2.35;;
62584;SDS011;48643;51.670;5.808;2023-08-08T00:23:12;3.60;;;2.30;;
62584;SDS011;48643;51.670;5.808;2023-08-08T00:25:39;5.85;;;2.30;;
62584;SDS011;48643;51.670;5.808;2023-08-08T00:28:06;5.55;;;2.30;;
62584;SDS011;48643;51.670;5.808;2023-08-08T00:30:33;3.15;;;2.03;;
62584;SDS011;48643;51.670;5.808;2023-08-08T00:33:02;4.90;;;2.30;;
62584;SDS011;48643;51.670;5.808;2023-08-08T00:35:31;3.05;;;2.20;;
62584;SDS011;48643;51.670;5.808;2023-08-08T00:37:58;3.50;;;2.15;;
62584;SDS011;48643;51.670;5.808;2023-08-08T00:40:25;4.10;;;2.30;;
62584;SDS011;48643;51.670;5.808;2023-08-08T00:42:51;3.40;;;2.40;;
62584;SDS011;48643;51.670;5.808;2023-08-08T00:45:18;4.35;;;2.50;;
62584;SDS011;48643;51.670;5.808;2023-08-08T00:47:45;3.70;;;2.40;;
62584;SDS011;48643;51.670;5.808;2023-08-08T00:50:12;4.18;;;2.60;;
62584;SDS011;48643;51.670;5.808;2023-08-08T00:52:40;3.60;;;2.40;;
62584;SDS011;48643;51.670;5.808;2023-08-08T00:55:08;3.10;;;2.33;;
62584;SDS011;48643;51.670;5.808;2023-08-08T00:57:36;5.10;;;2.47;;
62584;SDS011;48643;51.670;5.808;2023-08-08T01:00:05;3.10;;;2.30;;
62584;SDS011;48643;51.670;5.808;2023-08-08T01:02:33;5.57;;;2.53;;
62584;SDS011;48643;51.670;5.808;2023-08-08T01:05:00;3.65;;;2.35;;
62584;SDS011;48643;51.670;5.808;2023-08-08T01:07:30;5.03;;;2.50;;
62584;SDS011;48643;51.670;5.808;2023-08-08T01:10:09;6.30;;;2.45;;
62584;SDS011;48643;51.670;5.808;2023-08-08T01:12:38;4.22;;;2.50;;
62584;SDS011;48643;51.670;5.808;2023-08-08T01:15:09;4.15;;;2.20;;
62584;SDS011;48643;51.670;5.808;2023-08-08T01:17:36;4.88;;;2.50;;
62584;SDS011;48643;51.670;5.808;2023-08-08T01:20:03;5.10;;;2.42;;
62584;SDS011;48643;51.670;5.808;2023-08-08T01:22:35;5.05;;;2.53;;
62584;SDS011;48643;51.670;5.808;2023-08-08T01:25:04;3.63;;;2.47;;
62584;SDS011;48643;51.670;5.808;2023-08-08T01:27:31;5.72;;;2.60;;
62584;SDS011;48643;51.670;5.808;2023-08-08T01:29:58;6.47;;;2.50;;
62584;SDS011;48643;51.670;5.808;2023-08-08T01:32:25;3.88;;;2.50;;
62584;SDS011;48643;51.670;5.808;2023-08-08T01:34:52;4.38;;;2.50;;
62584;SDS011;48643;51.670;5.808;2023-08-08T01:37:24;4.30;;;2.20;;
62584;SDS011;48643;51.670;5.808;2023-08-08T01:40:07;6.88;;;2.40;;
62584;SDS011;48643;51.670;5.808;2023-08-08T01:42:35;3.58;;;2.17;;
62584;SDS011;48643;51.670;5.808;2023-08-08T01:45:03;3.88;;;2.25;;
62584;SDS011;48643;51.670;5.808;2023-08-08T01:47:30;4.00;;;2.35;;
62584;SDS011;48643;51.670;5.808;2023-08-08T01:49:57;3.88;;;2.40;;
62584;SDS011;48643;51.670;5.808;2023-08-08T01:52:24;5.22;;;2.30;;
62584;SDS011;48643;51.670;5.808;2023-08-08T01:54:51;6.70;;;2.47;;
62584;SDS011;48643;51.670;5.808;2023-08-08T01:57:17;4.32;;;2.50;;
62584;SDS011;48643;51.670;5.808;2023-08-08T01:59:45;6.13;;;2.55;;
62584;SDS011;48643;51.670;5.808;2023-08-08T02:02:13;3.67;;;2.23;;
62584;SDS011;48643;51.670;5.808;2023-08-08T02:04:41;3.47;;;2.25;;
62584;SDS011;48643;51.670;5.808;2023-08-08T02:07:08;6.03;;;2.45;;
62584;SDS011;48643;51.670;5.808;2023-08-08T02:09:35;4.38;;;2.42;;
62584;SDS011;48643;51.670;5.808;2023-08-08T02:12:02;6.13;;;2.30;;
62584;SDS011;48643;51.670;5.808;2023-08-08T02:14:31;5.00;;;2.50;;
62584;SDS011;48643;51.670;5.808;2023-08-08T02:16:57;3.85;;;2.25;;
62584;SDS011;48643;51.670;5.808;2023-08-08T02:19:24;5.88;;;2.55;;
62584;SDS011;48643;51.670;5.808;2023-08-08T02:21:52;7.13;;;2.55;;
62584;SDS011;48643;51.670;5.808;2023-08-08T02:24:19;5.13;;;2.53;;
62584;SDS011;48643;51.670;5.808;2023-08-08T02:26:46;4.80;;;2.70;;
62584;SDS011;48643;51.670;5.808;2023-08-08T02:29:13;5.00;;;2.50;;
62584;SDS011;48643;51.670;5.808;2023-08-08T02:31:40;6.93;;;2.53;;
62584;SDS011;48643;51.670;5.808;2023-08-08T02:34:07;6.35;;;2.70;;
62584;SDS011;48643;51.670;5.808;2023-08-08T02:36:34;4.80;;;2.50;;
62584;SDS011;48643;51.670;5.808;2023-08-08T02:39:00;4.30;;;2.33;;
62584;SDS011;48643;51.670;5.808;2023-08-08T02:41:27;6.03;;;2.40;;
62584;SDS011;48643;51.670;5.808;2023-08-08T02:43:54;6.70;;;2.67;;
62584;SDS011;48643;51.670;5.808;2023-08-08T02:46:22;5.75;;;2.60;;
62584;SDS011;48643;51.670;5.808;2023-08-08T02:48:49;6.05;;;2.30;;
62584;SDS011;48643;51.670;5.808;2023-08-08T02:51:15;5.47;;;2.40;;
62584;SDS011;48643;51.670;5.808;2023-08-08T02:53:42;6.63;;;2.88;;
62584;SDS011;48643;51.670;5.808;2023-08-08T02:56:09;5.30;;;2.47;;
62584;SDS011;48643;51.670;5.808;2023-08-08T02:58:39;4.40;;;2.50;;
62584;SDS011;48643;51.670;5.808;2023-08-08T03:01:06;5.28;;;2.50;;
62584;SDS011;48643;51.670;5.808;2023-08-08T03:03:34;6.18;;;2.50;;
62584;SDS011;48643;51.670;5.808;2023-08-08T03:06:02;5.28;;;2.25;;
62584;SDS011;48643;51.670;5.808;2023-08-08T03:08:30;5.25;;;2.53;;
62584;SDS011;48643;51.670;5.808;2023-08-08T03:10:57;6.47;;;2.45;;
62584;SDS011;48643;51.670;5.808;2023-08-08T03:13:24;5.28;;;2.63;;
62584;SDS011;48643;51.670;5.808;2023-08-08T03:15:53;5.88;;;2.72;;
62584;SDS011;48643;51.670;5.808;2023-08-08T03:18:20;5.10;;;2.47;;
62584;SDS011;48643;51.670;5.808;2023-08-08T03:20:49;7.22;;;2.67;;
62584;SDS011;48643;51.670;5.808;2023-08-08T03:23:17;5.13;;;2.50;;
62584;SDS011;48643;51.670;5.808;2023-08-08T03:25:44;5.55;;;2.50;;
62584;SDS011;48643;51.670;5.808;2023-08-08T03:28:13;5.40;;;2.53;;
62584;SDS011;48643;51.670;5.808;2023-08-08T03:30:40;5.22;;;2.70;;
62584;SDS011;48643;51.670;5.808;2023-08-08T03:33:09;8.80;;;2.70;;
62584;SDS011;48643;51.670;5.808;2023-08-08T03:35:36;5.05;;;2.35;;
62584;SDS011;48643;51.670;5.808;2023-08-08T03:38:03;5.00;;;2.60;;
62584;SDS011;48643;51.670;5.808;2023-08-08T03:40:30;4.90;;;2.70;;
62584;SDS011;48643;51.670;5.808;2023-08-08T03:42:57;3.75;;;2.50;;
62584;SDS011;48643;51.670;5.808;2023-08-08T03:45:25;4.57;;;2.47;;
62584;SDS011;48643;51.670;5.808;2023-08-08T03:47:51;6.20;;;2.50;;
62584;SDS011;48643;51.670;5.808;2023-08-08T03:50:19;5.65;;;2.60;;
62584;SDS011;48643;51.670;5.808;2023-08-08T03:52:46;4.03;;;2.60;;
62584;SDS011;48643;51.670;5.808;2023-08-08T03:55:13;5.63;;;2.80;;
62584;SDS011;48643;51.670;5.808;2023-08-08T03:57:40;5.35;;;2.55;;
62584;SDS011;48643;51.670;5.808;2023-08-08T04:00:07;6.45;;;2.60;;
62584;SDS011;48643;51.670;5.808;2023-08-08T04:02:40;7.68;;;3.00;;
62584;SDS011;48643;51.670;5.808;2023-08-08T04:05:07;6.43;;;2.80;;
62584;SDS011;48643;51.670;5.808;2023-08-08T04:07:35;6.35;;;2.63;;
62584;SDS011;48643;51.670;5.808;2023-08-08T04:10:02;5.38;;;2.60;;
62584;SDS011;48643;51.670;5.808;2023-08-08T04:12:29;5.50;;;2.75;;
62584;SDS011;48643;51.670;5.808;2023-08-08T04:14:55;6.22;;;2.72;;
62584;SDS011;48643;51.670;5.808;2023-08-08T04:17:23;6.63;;;2.97;;
62584;SDS011;48643;51.670;5.808;2023-08-08T04:19:49;7.72;;;2.92;;
62584;SDS011;48643;51.670;5.808;2023-08-08T04:22:17;6.47;;;2.92;;
62584;SDS011;48643;51.670;5.808;2023-08-08T04:24:44;8.38;;;3.25;;
62584;SDS011;48643;51.670;5.808;2023-08-08T04:27:11;6.10;;;2.80;;
62584;SDS011;48643;51.670;5.808;2023-08-08T04:29:38;5.88;;;3.00;;
62584;SDS011;48643;51.670;5.808;2023-08-08T04:32:04;5.78;;;3.05;;
62584;SDS011;48643;51.670;5.808;2023-08-08T04:34:31;5.30;;;2.80;;
62584;SDS011;48643;51.670;5.808;2023-08-08T04:36:58;6.43;;;2.80;;
62584;SDS011;48643;51.670;5.808;2023-08-08T04:39:25;7.00;;;3.10;;
62584;SDS011;48643;51.670;5.808;2023-08-08T04:41:52;7.60;;;3.00;;
62584;SDS011;48643;51.670;5.808;2023-08-08T04:44:19;5.72;;;2.80;;
62584;SDS011;48643;51.670;5.808;2023-08-08T04:46:46;7.13;;;2.90;;
62584;SDS011;48643;51.670;5.808;2023-08-08T04:49:13;6.80;;;2.92;;
62584;SDS011;48643;51.670;5.808;2023-08-08T04:51:40;7.18;;;3.00;;
62584;SDS011;48643;51.670;5.808;2023-08-08T04:54:06;8.00;;;2.97;;
62584;SDS011;48643;51.670;5.808;2023-08-08T04:56:33;8.75;;;2.90;;
62584;SDS011;48643;51.670;5.808;2023-08-08T04:59:00;6.30;;;2.97;;
62584;SDS011;48643;51.670;5.808;2023-08-08T05:01:27;8.38;;;3.30;;
62584;SDS011;48643;51.670;5.808;2023-08-08T05:03:54;7.18;;;3.00;;
62584;SDS011;48643;51.670;5.808;2023-08-08T05:06:22;12.10;;;3.28;;
62584;SDS011;48643;51.670;5.808;2023-08-08T05:08:49;6.20;;;2.85;;
62584;SDS011;48643;51.670;5.808;2023-08-08T05:11:17;7.20;;;2.90;;
62584;SDS011;48643;51.670;5.808;2023-08-08T05:13:44;6.78;;;2.75;;
62584;SDS011;48643;51.670;5.808;2023-08-08T05:16:11;7.45;;;2.97;;
62584;SDS011;48643;51.670;5.808;2023-08-08T05:18:38;9.32;;;3.30;;
62584;SDS011;48643;51.670;5.808;2023-08-08T05:21:05;7.05;;;3.13;;
62584;SDS011;48643;51.670;5.808;2023-08-08T05:23:32;5.53;;;2.88;;
62584;SDS011;48643;51.670;5.808;2023-08-08T05:25:59;6.35;;;2.72;;
62584;SDS011;48643;51.670;5.808;2023-08-08T05:28:26;8.60;;;3.08;;
62584;SDS011;48643;51.670;5.808;2023-08-08T05:30:53;5.93;;;2.70;;
62584;SDS011;48643;51.670;5.808;2023-08-08T05:33:20;7.55;;;3.08;;
62584;SDS011;48643;51.670;5.808;2023-08-08T05:35:47;4.93;;;2.50;;
62584;SDS011;48643;51.670;5.808;2023-08-08T05:38:14;5.78;;;2.78;;
62584;SDS011;48643;51.670;5.808;2023-08-08T05:40:41;9.10;;;3.13;;
62584;SDS011;48643;51.670;5.808;2023-08-08T05:43:08;7.72;;;3.15;;
62584;SDS011;48643;51.670;5.808;2023-08-08T05:45:35;7.28;;;3.00;;
62584;SDS011;48643;51.670;5.808;2023-08-08T05:48:02;6.63;;;2.80;;
62584;SDS011;48643;51.670;5.808;2023-08-08T05:50:29;7.38;;;3.05;;
62584;SDS011;48643;51.670;5.808;2023-08-08T05:52:56;6.80;;;2.97;;
62584;SDS011;48643;51.670;5.808;2023-08-08T05:55:23;6.50;;;3.20;;
62584;SDS011;48643;51.670;5.808;2023-08-08T05:57:50;7.93;;;3.10;;
62584;SDS011;48643;51.670;5.808;2023-08-08T06:00:17;8.65;;;3.00;;
62584;SDS011;48643;51.670;5.808;2023-08-08T06:02:44;7.28;;;3.35;;
62584;SDS011;48643;51.670;5.808;2023-08-08T06:05:11;7.55;;;2.90;;
62584;SDS011;48643;51.670;5.808;2023-08-08T06:07:38;6.63;;;3.00;;
62584;SDS011;48643;51.670;5.808;2023-08-08T06:10:05;8.20;;;3.20;;
62584;SDS011;48643;51.670;5.808;2023-08-08T06:12:34;6.75;;;2.83;;
62584;SDS011;48643;51.670;5.808;2023-08-08T06:15:01;6.90;;;2.90;;
62584;SDS011;48643;51.670;5.808;2023-08-08T06:17:30;8.52;;;3.13;;
62584;SDS011;48643;51.670;5.808;2023-08-08T06:19:57;7.70;;;2.95;;
62584;SDS011;48643;51.670;5.808;2023-08-08T06:22:24;7.78;;;3.10;;
62584;SDS011;48643;51.670;5.808;2023-08-08T06:24:51;8.05;;;3.40;;
62584;SDS011;48643;51.670;5.808;2023-08-08T06:27:18;7.55;;;3.15;;
62584;SDS011;48643;51.670;5.808;2023-08-08T06:29:45;13.63;;;3.42;;
62584;SDS011;48643;51.670;5.808;2023-08-08T06:32:12;10.50;;;3.75;;
62584;SDS011;48643;51.670;5.808;2023-08-08T06:34:39;12.23;;;4.00;;
62584;SDS011;48643;51.670;5.808;2023-08-08T06:37:06;11.65;;;3.80;;
62584;SDS011;48643;51.670;5.808;2023-08-08T06:39:32;14.20;;;3.97;;
62584;SDS011;48643;51.670;5.808;2023-08-08T06:42:00;14.23;;;3.70;;
62584;SDS011;48643;51.670;5.808;2023-08-08T06:44:44;8.85;;;3.63;;
62584;SDS011;48643;51.670;5.808;2023-08-08T06:47:11;16.88;;;3.95;;
62584;SDS011;48643;51.670;5.808;2023-08-08T06:49:38;14.77;;;3.90;;
62584;SDS011;48643;51.670;5.808;2023-08-08T06:52:05;11.35;;;3.72;;
62584;SDS011;48643;51.670;5.808;2023-08-08T06:54:32;9.00;;;3.25;;
62584;SDS011;48643;51.670;5.808;2023-08-08T06:56:59;7.97;;;3.13;;
62584;SDS011;48643;51.670;5.808;2023-08-08T06:59:28;9.55;;;3.10;;
62584;SDS011;48643;51.670;5.808;2023-08-08T07:01:55;10.07;;;3.45;;
62584;SDS011;48643;51.670;5.808;2023-08-08T07:04:23;6.55;;;2.78;;
62584;SDS011;48643;51.670;5.808;2023-08-08T07:06:51;7.43;;;3.17;;
62584;SDS011;48643;51.670;5.808;2023-08-08T07:09:17;9.68;;;3.08;;
62584;SDS011;48643;51.670;5.808;2023-08-08T07:11:44;8.05;;;2.80;;
62584;SDS011;48643;51.670;5.808;2023-08-08T07:14:12;6.35;;;3.10;;
62584;SDS011;48643;51.670;5.808;2023-08-08T07:16:39;7.13;;;3.10;;
62584;SDS011;48643;51.670;5.808;2023-08-08T07:19:05;8.20;;;2.88;;
62584;SDS011;48643;51.670;5.808;2023-08-08T07:21:32;7.57;;;3.00;;
62584;SDS011;48643;51.670;5.808;2023-08-08T07:23:59;7.28;;;2.80;;
62584;SDS011;48643;51.670;5.808;2023-08-08T07:26:26;9.45;;;3.28;;
62584;SDS011;48643;51.670;5.808;2023-08-08T07:28:53;8.82;;;3.45;;
62584;SDS011;48643;51.670;5.808;2023-08-08T07:31:20;8.73;;;3.50;;
62584;SDS011;48643;51.670;5.808;2023-08-08T07:33:47;11.80;;;3.45;;
62584;SDS011;48643;51.670;5.808;2023-08-08T07:36:13;12.23;;;3.50;;
62584;SDS011;48643;51.670;5.808;2023-08-08T07:38:40;13.02;;;3.35;;
62584;SDS011;48643;51.670;5.808;2023-08-08T07:41:07;11.15;;;3.30;;
62584;SDS011;48643;51.670;5.808;2023-08-08T07:43:34;14.77;;;3.20;;
62584;SDS011;48643;51.670;5.808;2023-08-08T07:46:01;11.35;;;3.05;;
62584;SDS011;48643;51.670;5.808;2023-08-08T07:48:28;10.80;;;3.10;;
62584;SDS011;48643;51.670;5.808;2023-08-08T07:50:54;12.30;;;3.15;;
62584;SDS011;48643;51.670;5.808;2023-08-08T07:53:21;9.40;;;3.63;;
62584;SDS011;48643;51.670;5.808;2023-08-08T07:55:48;8.18;;;3.00;;
62584;SDS011;48643;51.670;5.808;2023-08-08T07:58:15;10.95;;;4.03;;
62584;SDS011;48643;51.670;5.808;2023-08-08T08:00:42;12.85;;;3.30;;
62584;SDS011;48643;51.670;5.808;2023-08-08T08:03:09;7.30;;;3.20;;
62584;SDS011;48643;51.670;5.808;2023-08-08T08:05:36;10.55;;;3.20;;
62584;SDS011;48643;51.670;5.808;2023-08-08T08:08:03;10.90;;;3.28;;
62584;SDS011;48643;51.670;5.808;2023-08-08T08:10:30;9.35;;;3.03;;
62584;SDS011;48643;51.670;5.808;2023-08-08T08:12:57;7.68;;;3.00;;
62584;SDS011;48643;51.670;5.808;2023-08-08T08:15:25;9.32;;;3.03;;
62584;SDS011;48643;51.670;5.808;2023-08-08T08:17:52;7.20;;;2.63;;
62584;SDS011;48643;51.670;5.808;2023-08-08T08:20:19;11.90;;;3.30;;
62584;SDS011;48643;51.670;5.808;2023-08-08T08:22:46;12.57;;;3.10;;
62584;SDS011;48643;51.670;5.808;2023-08-08T08:25:13;11.48;;;3.15;;
62584;SDS011;48643;51.670;5.808;2023-08-08T08:27:41;9.80;;;2.95;;
62584;SDS011;48643;51.670;5.808;2023-08-08T08:30:08;7.63;;;2.28;;
62584;SDS011;48643;51.670;5.808;2023-08-08T08:32:37;12.38;;;2.40;;
62584;SDS011;48643;51.670;5.808;2023-08-08T08:35:05;8.57;;;2.60;;
62584;SDS011;48643;51.670;5.808;2023-08-08T08:37:33;10.43;;;2.88;;
62584;SDS011;48643;51.670;5.808;2023-08-08T08:40:00;9.20;;;2.60;;
62584;SDS011;48643;51.670;5.808;2023-08-08T08:42:27;12.55;;;2.78;;
62584;SDS011;48643;51.670;5.808;2023-08-08T08:44:58;9.00;;;2.67;;
62584;SDS011;48643;51.670;5.808;2023-08-08T08:47:25;13.40;;;3.13;;
62584;SDS011;48643;51.670;5.808;2023-08-08T08:49:52;7.50;;;2.58;;
62584;SDS011;48643;51.670;5.808;2023-08-08T08:52:19;4.97;;;2.05;;
62584;SDS011;48643;51.670;5.808;2023-08-08T08:54:46;7.95;;;2.42;;
62584;SDS011;48643;51.670;5.808;2023-08-08T08:57:13;6.43;;;2.47;;
62584;SDS011;48643;51.670;5.808;2023-08-08T08:59:40;6.55;;;3.00;;
62584;SDS011;48643;51.670;5.808;2023-08-08T09:02:08;5.85;;;2.83;;
62584;SDS011;48643;51.670;5.808;2023-08-08T09:04:35;5.38;;;2.80;;
62584;SDS011;48643;51.670;5.808;2023-08-08T09:07:02;5.03;;;2.40;;
62584;SDS011;48643;51.670;5.808;2023-08-08T09:09:32;6.30;;;2.50;;
62584;SDS011;48643;51.670;5.808;2023-08-08T09:12:01;7.68;;;2.45;;
62584;SDS011;48643;51.670;5.808;2023-08-08T09:14:29;6.05;;;2.70;;
62584;SDS011;48643;51.670;5.808;2023-08-08T09:16:56;6.38;;;2.45;;
62584;SDS011;48643;51.670;5.808;2023-08-08T09:19:23;8.27;;;2.80;;
62584;SDS011;48643;51.670;5.808;2023-08-08T09:21:51;6.35;;;2.60;;
62584;SDS011;48643;51.670;5.808;2023-08-08T09:24:18;5.72;;;2.45;;
62584;SDS011;48643;51.670;5.808;2023-08-08T09:26:45;5.15;;;2.40;;
62584;SDS011;48643;51.670;5.808;2023-08-08T09:29:13;5.65;;;2.05;;
62584;SDS011;48643;51.670;5.808;2023-08-08T09:31:45;4.22;;;1.98;;
62584;SDS011;48643;51.670;5.808;2023-08-08T09:34:13;4.32;;;2.00;;
62584;SDS011;48643;51.670;5.808;2023-08-08T09:36:40;7.20;;;2.15;;
62584;SDS011;48643;51.670;5.808;2023-08-08T09:39:06;5.05;;;2.05;;
62584;SDS011;48643;51.670;5.808;2023-08-08T09:41:34;4.07;;;2.20;;
62584;SDS011;48643;51.670;5.808;2023-08-08T09:44:01;4.57;;;1.88;;
62584;SDS011;48643;51.670;5.808;2023-08-08T09:46:29;5.82;;;2.20;;
62584;SDS011;48643;51.670;5.808;2023-08-08T09:48:57;4.45;;;1.98;;
62584;SDS011;48643;51.670;5.808;2023-08-08T09:51:24;3.97;;;2.10;;
62584;SDS011;48643;51.670;5.808;2023-08-08T09:53:52;6.75;;;1.90;;
62584;SDS011;48643;51.670;5.808;2023-08-08T09:56:19;4.35;;;2.08;;
62584;SDS011;48643;51.670;5.808;2023-08-08T09:58:46;5.28;;;2.10;;
62584;SDS011;48643;51.670;5.808;2023-08-08T10:01:13;4.60;;;2.10;;
62584;SDS011;48643;51.670;5.808;2023-08-08T10:03:41;4.22;;;1.90;;
62584;SDS011;48643;51.670;5.808;2023-08-08T10:06:11;4.25;;;1.90;;
62584;SDS011;48643;51.670;5.808;2023-08-08T10:08:39;7.35;;;2.10;;
62584;SDS011;48643;51.670;5.808;2023-08-08T10:11:06;3.53;;;2.00;;
62584;SDS011;48643;51.670;5.808;2023-08-08T10:13:35;5.22;;;1.95;;
62584;SDS011;48643;51.670;5.808;2023-08-08T10:16:07;5.60;;;1.80;;
62584;SDS011;48643;51.670;5.808;2023-08-08T10:18:35;6.03;;;2.08;;
62584;SDS011;48643;51.670;5.808;2023-08-08T10:21:03;4.35;;;1.98;;
62584;SDS011;48643;51.670;5.808;2023-08-08T10:23:37;4.95;;;1.80;;
62584;SDS011;48643;51.670;5.808;2023-08-08T10:26:05;3.80;;;1.95;;
62584;SDS011;48643;51.670;5.808;2023-08-08T10:28:52;5.18;;;2.08;;
62584;SDS011;48643;51.670;5.808;2023-08-08T10:31:22;3.58;;;1.73;;
62584;SDS011;48643;51.670;5.808;2023-08-08T10:33:49;4.78;;;1.90;;
62584;SDS011;48643;51.670;5.808;2023-08-08T10:36:16;3.83;;;1.95;;
62584;SDS011;48643;51.670;5.808;2023-08-08T10:38:47;3.53;;;1.67;;
62584;SDS011;48643;51.670;5.808;2023-08-08T10:41:17;3.85;;;1.95;;
62584;SDS011;48643;51.670;5.808;2023-08-08T10:49:01;5.38;;;1.80;;
62584;SDS011;48643;51.670;5.808;2023-08-08T10:51:33;4.43;;;2.00;;
62584;SDS011;48643;51.670;5.808;2023-08-08T10:54:02;3.63;;;1.80;;
62584;SDS011;48643;51.670;5.808;2023-08-08T10:56:30;3.42;;;1.92;;
62584;SDS011;48643;51.670;5.808;2023-08-08T10:58:58;3.22;;;1.83;;
62584;SDS011;48643;51.670;5.808;2023-08-08T11:01:25;3.63;;;1.80;;
62584;SDS011;48643;51.670;5.808;2023-08-08T11:03:52;4.57;;;1.90;;
62584;SDS011;48643;51.670;5.808;2023-08-08T11:06:19;3.40;;;1.85;;
62584;SDS011;48643;51.670;5.808;2023-08-08T11:08:46;4.28;;;1.98;;
62584;SDS011;48643;51.670;5.808;2023-08-08T11:11:13;3.72;;;1.90;;
62584;SDS011;48643;51.670;5.808;2023-08-08T11:13:39;3.80;;;1.85;;
62584;SDS011;48643;51.670;5.808;2023-08-08T11:16:06;5.47;;;1.80;;
62584;SDS011;48643;51.670;5.808;2023-08-08T11:18:33;3.75;;;1.90;;
62584;SDS011;48643;51.670;5.808;2023-08-08T11:21:08;4.07;;;1.90;;
62584;SDS011;48643;51.670;5.808;2023-08-08T11:23:45;2.67;;;1.80;;
62584;SDS011;48643;51.670;5.808;2023-08-08T11:26:13;3.13;;;1.60;;
62584;SDS011;48643;51.670;5.808;2023-08-08T11:28:50;4.43;;;1.90;;
62584;SDS011;48643;51.670;5.808;2023-08-08T11:31:20;3.75;;;1.88;;
62584;SDS011;48643;51.670;5.808;2023-08-08T11:33:48;4.30;;;1.80;;
62584;SDS011;48643;51.670;5.808;2023-08-08T11:36:15;3.22;;;1.80;;
62584;SDS011;48643;51.670;5.808;2023-08-08T11:38:42;3.63;;;1.85;;
62584;SDS011;48643;51.670;5.808;2023-08-08T11:41:13;2.03;;;1.55;;
62584;SDS011;48643;51.670;5.808;2023-08-08T11:43:40;2.35;;;1.60;;
62584;SDS011;48643;51.670;5.808;2023-08-08T11:46:14;2.92;;;1.80;;
62584;SDS011;48643;51.670;5.808;2023-08-08T11:48:41;3.55;;;1.88;;
62584;SDS011;48643;51.670;5.808;2023-08-08T11:51:09;4.28;;;1.92;;
62584;SDS011;48643;51.670;5.808;2023-08-08T11:53:36;4.07;;;1.88;;
62584;SDS011;48643;51.670;5.808;2023-08-08T11:56:14;3.08;;;1.88;;
62584;SDS011;48643;51.670;5.808;2023-08-08T11:58:41;2.38;;;1.67;;
62584;SDS011;48643;51.670;5.808;2023-08-08T12:01:08;3.35;;;1.75;;
62584;SDS011;48643;51.670;5.808;2023-08-08T12:03:35;3.42;;;1.88;;
62584;SDS011;48643;51.670;5.808;2023-08-08T12:06:11;3.25;;;1.63;;
62584;SDS011;48643;51.670;5.808;2023-08-08T12:08:42;4.22;;;1.70;;
62584;SDS011;48643;51.670;5.808;2023-08-08T12:11:11;2.03;;;1.70;;
62584;SDS011;48643;51.670;5.808;2023-08-08T12:13:40;5.75;;;1.88;;
62584;SDS011;48643;51.670;5.808;2023-08-08T12:16:08;2.85;;;1.80;;
62584;SDS011;48643;51.670;5.808;2023-08-08T12:18:43;2.78;;;1.60;;
62584;SDS011;48643;51.670;5.808;2023-08-08T12:21:10;3.63;;;1.90;;
62584;SDS011;48643;51.670;5.808;2023-08-08T12:23:37;3.85;;;1.70;;
62584;SDS011;48643;51.670;5.808;2023-08-08T12:26:04;2.58;;;1.70;;
62584;SDS011;48643;51.670;5.808;2023-08-08T12:28:31;3.33;;;1.80;;
62584;SDS011;48643;51.670;5.808;2023-08-08T12:30:59;2.55;;;1.77;;
62584;SDS011;48643;51.670;5.808;2023-08-08T12:33:26;3.45;;;1.80;;
62584;SDS011;48643;51.670;5.808;2023-08-08T12:35:53;2.13;;;1.52;;
62584;SDS011;48643;51.670;5.808;2023-08-08T12:38:19;4.18;;;1.80;;
62584;SDS011;48643;51.670;5.808;2023-08-08T12:40:47;4.10;;;1.70;;
62584;SDS011;48643;51.670;5.808;2023-08-08T12:43:14;3.83;;;1.50;;
62584;SDS011;48643;51.670;5.808;2023-08-08T12:45:44;3.88;;;1.60;;
62584;SDS011;48643;51.670;5.808;2023-08-08T12:48:12;5.22;;;1.70;;
62584;SDS011;48643;51.670;5.808;2023-08-08T12:50:39;2.17;;;1.50;;
62584;SDS011;48643;51.670;5.808;2023-08-08T12:53:07;3.55;;;1.60;;
62584;SDS011;48643;51.670;5.808;2023-08-08T12:55:34;3.55;;;1.77;;
62584;SDS011;48643;51.670;5.808;2023-08-08T12:58:02;2.28;;;1.50;;
62584;SDS011;48643;51.670;5.808;2023-08-08T13:00:29;3.53;;;1.50;;
62584;SDS011;48643;51.670;5.808;2023-08-08T13:02:56;2.97;;;1.70;;
62584;SDS011;48643;51.670;5.808;2023-08-08T13:05:23;1.88;;;1.40;;
62584;SDS011;48643;51.670;5.808;2023-08-08T13:07:50;2.30;;;1.50;;
62584;SDS011;48643;51.670;5.808;2023-08-08T13:10:17;2.58;;;1.50;;
62584;SDS011;48643;51.670;5.808;2023-08-08T13:12:47;2.92;;;1.52;;
62584;SDS011;48643;51.670;5.808;2023-08-08T13:15:14;2.60;;;1.50;;
62584;SDS011;48643;51.670;5.808;2023-08-08T13:17:41;2.08;;;1.60;;
62584;SDS011;48643;51.670;5.808;2023-08-08T13:20:08;2.15;;;1.50;;
62584;SDS011;48643;51.670;5.808;2023-08-08T13:22:35;4.60;;;1.60;;
62584;SDS011;48643;51.670;5.808;2023-08-08T13:25:02;2.72;;;1.50;;
62584;SDS011;48643;51.670;5.808;2023-08-08T13:27:31;5.45;;;1.40;;
62584;SDS011;48643;51.670;5.808;2023-08-08T13:29:58;3.50;;;1.40;;
62584;SDS011;48643;51.670;5.808;2023-08-08T13:32:25;3.08;;;1.40;;
62584;SDS011;48643;51.670;5.808;2023-08-08T13:34:52;6.38;;;1.27;;
62584;SDS011;48643;51.670;5.808;2023-08-08T13:37:19;2.08;;;1.40;;
62584;SDS011;48643;51.670;5.808;2023-08-08T13:39:46;5.15;;;1.30;;
62584;SDS011;48643;51.670;5.808;2023-08-08T13:42:12;1.95;;;1.35;;
62584;SDS011;48643;51.670;5.808;2023-08-08T13:44:39;5.07;;;1.30;;
62584;SDS011;48643;51.670;5.808;2023-08-08T13:47:06;3.10;;;1.45;;
62584;SDS011;48643;51.670;5.808;2023-08-08T13:49:33;2.38;;;1.40;;
62584;SDS011;48643;51.670;5.808;2023-08-08T13:52:02;3.88;;;1.33;;
62584;SDS011;48643;51.670;5.808;2023-08-08T13:54:29;2.35;;;1.02;;
62584;SDS011;48643;51.670;5.808;2023-08-08T13:56:56;10.10;;;1.60;;
62584;SDS011;48643;51.670;5.808;2023-08-08T13:59:23;5.20;;;1.63;;
62584;SDS011;48643;51.670;5.808;2023-08-08T14:01:50;4.60;;;1.20;;
62584;SDS011;48643;51.670;5.808;2023-08-08T14:04:17;4.13;;;1.33;;
62584;SDS011;48643;51.670;5.808;2023-08-08T14:06:45;2.67;;;1.40;;
62584;SDS011;48643;51.670;5.808;2023-08-08T14:09:12;6.35;;;1.38;;
62584;SDS011;48643;51.670;5.808;2023-08-08T14:11:40;4.20;;;1.45;;
62584;SDS011;48643;51.670;5.808;2023-08-08T14:14:07;5.10;;;1.40;;
62584;SDS011;48643;51.670;5.808;2023-08-08T14:16:34;3.85;;;1.40;;
62584;SDS011;48643;51.670;5.808;2023-08-08T14:19:01;3.13;;;1.38;;
62584;SDS011;48643;51.670;5.808;2023-08-08T14:21:27;3.03;;;1.30;;
62584;SDS011;48643;51.670;5.808;2023-08-08T14:23:54;2.45;;;1.30;;
62584;SDS011;48643;51.670;5.808;2023-08-08T14:26:21;2.08;;;1.40;;
62584;SDS011;48643;51.670;5.808;2023-08-08T14:28:48;3.95;;;1.50;;
62584;SDS011;48643;51.670;5.808;2023-08-08T14:31:15;2.92;;;1.30;;
62584;SDS011;48643;51.670;5.808;2023-08-08T14:33:42;2.78;;;1.50;;
62584;SDS011;48643;51.670;5.808;2023-08-08T14:36:09;3.78;;;1.50;;
62584;SDS011;48643;51.670;5.808;2023-08-08T14:38:35;4.13;;;1.50;;
62584;SDS011;48643;51.670;5.808;2023-08-08T14:41:03;5.18;;;1.42;;
62584;SDS011;48643;51.670;5.808;2023-08-08T14:43:30;3.00;;;1.30;;
62584;SDS011;48643;51.670;5.808;2023-08-08T14:45:57;2.70;;;1.60;;
62584;SDS011;48643;51.670;5.808;2023-08-08T14:48:24;4.90;;;1.50;;
62584;SDS011;48643;51.670;5.808;2023-08-08T14:50:51;2.95;;;1.30;;
62584;SDS011;48643;51.670;5.808;2023-08-08T14:53:17;3.33;;;1.50;;